Vingaren — OZ2131 — position and weather

sailwx.info

Track history (hours):
 
Tides and Currents Weather Stations Pressure Air Temp Water Temp Dewpoint Dewpoint Depression Visibility Wind Speed Wind Dir Waves Ship Positions

Vingaren

Last reported at 2017-Feb-19 07:33 UTC. Time now 2017-Feb-19 16:51 UTC.
Position N 54°18' E 011°38'.

Length 89 m; draft 5.9 m.

Type: Cargo ship. MMSI: 231844000.

Date/timePositionNaut miles runAvg speedWind from/ knotsBaromVisibWave heightAir tempDewpointWater temp
2017-Feb-19 07:33N 54°18' E 011°38'9 9.5
2017-Feb-19 06:33N 54°23' E 011°52'9 8.9
2017-Feb-19 05:34N 54°27' E 012°05'8 8.2
2017-Feb-19 04:34N 54°34' E 012°13'9 8.8
2017-Feb-19 03:34N 54°40' E 012°23'9 8.8
2017-Feb-19 02:33N 54°45' E 012°36'37 9.2
2017-Feb-18 22:31N 54°59' E 013°36'9 9.3
2017-Feb-18 21:32N 55°02' E 013°51'9 9.7
2017-Feb-18 20:33N 55°06' E 014°06'10 9.7
2017-Feb-18 19:33N 55°13' E 014°17'1010.1
2017-Feb-18 18:33N 55°21' E 014°29'1010.0
2017-Feb-18 17:32N 55°28' E 014°42'1010.3
2017-Feb-18 16:33N 55°33' E 014°58'1010.1
2017-Feb-18 15:33N 55°38' E 015°13'1010.1
2017-Feb-18 14:33N 55°43' E 015°28'1010.1
2017-Feb-18 13:33N 55°48' E 015°44'1010.1
2017-Feb-18 12:34N 55°53' E 015°59'1010.0
2017-Feb-18 11:33N 55°59' E 016°15'1010.2
2017-Feb-18 10:34N 56°04' E 016°30'1010.0
2017-Feb-18 09:33N 56°10' E 016°44'1010.4
2017-Feb-18 08:33N 56°20' E 016°50'1110.7
2017-Feb-18 07:33N 56°31' E 016°55'1010.6
2017-Feb-18 06:33N 56°41' E 017°00'2110.6
2017-Feb-18 04:32N 57°01' E 017°11'8510.7
2017-Feb-17 20:33N 58°26' E 017°31'1010.2
2017-Feb-17 19:34N 58°36' E 017°30'10 9.8
2017-Feb-17 18:34N 58°37' E 017°11'3 3.2
2017-Feb-17 17:32N 58°40' E 017°07'0 0.0
2017-Feb-17 16:29N 58°40' E 017°07'0 0.0
2017-Feb-17 15:32N 58°40' E 017°07'0 0.0
2017-Feb-17 14:32N 58°40' E 017°07'0 0.0
2017-Feb-17 13:32N 58°40' E 017°07'0 0.0
2017-Feb-17 12:32N 58°40' E 017°07'0 0.0
2017-Feb-17 11:32N 58°40' E 017°07'0 0.0
2017-Feb-17 10:32N 58°40' E 017°07'0 0.0
2017-Feb-17 09:32N 58°40' E 017°07'0 0.0
2017-Feb-17 08:32N 58°40' E 017°07'0 0.0
2017-Feb-17 07:32N 58°40' E 017°07'0 0.0
2017-Feb-17 06:32N 58°40' E 017°07'0 0.0
2017-Feb-17 05:32N 58°40' E 017°07'0 0.0
2017-Feb-17 04:32N 58°40' E 017°07'0 0.0
2017-Feb-17 03:32N 58°40' E 017°07'0 0.4
2017-Feb-17 02:33N 58°39' E 017°07'9 8.8
2017-Feb-17 01:34N 58°37' E 017°24'16510.1
2017-Feb-16 09:15N 55°56' E 016°19'710.7
2017-Feb-16 08:33N 55°52' E 016°07'1110.7
2017-Feb-16 07:33N 55°47' E 015°51'1010.4
2017-Feb-16 06:33N 55°42' E 015°35'1010.6
2017-Feb-16 05:33N 55°36' E 015°19'1010.4
2017-Feb-16 04:33N 55°31' E 015°03'1110.5
2017-Feb-16 03:33N 55°25' E 014°47'1110.7
2017-Feb-16 02:33N 55°18' E 014°33'1110.8
2017-Feb-16 01:34N 55°10' E 014°20'1110.7
2017-Feb-16 00:33N 55°02' E 014°08'1110.8
2017-Feb-15 23:32N 54°58' E 013°50'1010.6
2017-Feb-15 22:33N 54°55' E 013°33'1510.8
2017-Feb-15 21:09N 54°50' E 013°08'711.0
2017-Feb-15 20:28N 54°47' E 012°56'1010.7
2017-Feb-15 19:34N 54°44' E 012°41'20 9.9
2017-Feb-15 17:30N 54°29' E 012°15'9 9.5
2017-Feb-15 16:32N 54°24' E 012°02'2110.5
2017-Feb-15 14:33N 54°14' E 011°31'1010.1
2017-Feb-15 13:33N 54°04' E 011°26'7 7.5
2017-Feb-15 12:34N 53°57' E 011°24'4 3.5
2017-Feb-15 11:33N 53°54' E 011°28'0 0.0
2017-Feb-15 10:33N 53°54' E 011°28'0 0.0
2017-Feb-15 09:33N 53°54' E 011°28'0 0.0
2017-Feb-15 08:33N 53°54' E 011°28'0 0.0
2017-Feb-15 07:33N 53°54' E 011°28'0 0.0
2017-Feb-15 06:33N 53°54' E 011°28'0 0.0
2017-Feb-15 05:33N 53°54' E 011°28'0 0.0
2017-Feb-15 04:33N 53°54' E 011°28'0 0.0
2017-Feb-15 03:33N 53°54' E 011°28'0 0.0
2017-Feb-15 02:33N 53°54' E 011°28'0 0.0
2017-Feb-15 01:30N 53°54' E 011°28'0 0.0
2017-Feb-15 00:30N 53°54' E 011°28'0 0.0
2017-Feb-14 23:30N 53°54' E 011°28'0 0.0
2017-Feb-14 22:32N 53°54' E 011°28'0 0.0
2017-Feb-14 21:32N 53°54' E 011°28'0 0.0
2017-Feb-14 20:32N 53°54' E 011°28'0 0.0
2017-Feb-14 19:32N 53°54' E 011°28'0 0.0
2017-Feb-14 18:32N 53°54' E 011°28'0 0.0
2017-Feb-14 17:32N 53°54' E 011°28'0 0.0
2017-Feb-14 16:32N 53°54' E 011°28'0 0.0
2017-Feb-14 15:32N 53°54' E 011°28'0 0.0
2017-Feb-14 14:32N 53°54' E 011°28'0 0.0
2017-Feb-14 13:32N 53°54' E 011°28'0 0.0
2017-Feb-14 12:32N 53°54' E 011°28'0 0.0
2017-Feb-14 11:32N 53°54' E 011°28'0 0.0
2017-Feb-14 10:32N 53°54' E 011°28'0 0.0
2017-Feb-14 09:29N 53°54' E 011°28'0 0.0
2017-Feb-14 08:32N 53°54' E 011°28'0 0.0
2017-Feb-14 07:32N 53°54' E 011°28'0 0.0
2017-Feb-14 06:32N 53°54' E 011°28'0 0.0
2017-Feb-14 05:32N 53°54' E 011°28'0 0.0
2017-Feb-14 04:32N 53°54' E 011°28'0 0.0
2017-Feb-14 03:32N 53°54' E 011°28'0 0.0
2017-Feb-14 02:32N 53°54' E 011°28'0 0.0
2017-Feb-14 01:32N 53°54' E 011°28'0 0.0
2017-Feb-14 00:32N 53°54' E 011°28'0 0.0
2017-Feb-13 23:32N 53°54' E 011°28'0 0.0
2017-Feb-13 22:29N 53°54' E 011°28'0 0.0
2017-Feb-13 21:32N 53°54' E 011°28'0 0.0
2017-Feb-13 20:32N 53°54' E 011°28'0 0.0
2017-Feb-13 19:32N 53°54' E 011°28'0 0.0
2017-Feb-13 18:32N 53°54' E 011°28'0 0.0
2017-Feb-13 17:32N 53°54' E 011°28'0 0.0
2017-Feb-13 16:32N 53°54' E 011°28'0 0.0
2017-Feb-13 15:32N 53°54' E 011°28'0 0.0
2017-Feb-13 14:32N 53°54' E 011°28'0 0.0
2017-Feb-13 13:31N 53°54' E 011°28'0 0.0
2017-Feb-13 12:31N 53°54' E 011°28'0 0.0
2017-Feb-13 11:31N 53°54' E 011°28'0 0.0
2017-Feb-13 10:31N 53°54' E 011°28'0 0.0
2017-Feb-13 09:31N 53°54' E 011°28'0 0.0
2017-Feb-13 08:31N 53°54' E 011°28'0 0.0
2017-Feb-13 07:28N 53°54' E 011°28'0 0.0
2017-Feb-13 06:31N 53°54' E 011°28'0 0.0
2017-Feb-13 05:28N 53°54' E 011°28'0 0.0
2017-Feb-13 04:31N 53°54' E 011°28'0 0.0
2017-Feb-13 03:31N 53°54' E 011°28'0 0.0
2017-Feb-13 02:31N 53°54' E 011°28'0 0.0
2017-Feb-13 01:31N 53°54' E 011°28'0 0.0
2017-Feb-13 00:31N 53°54' E 011°28'0 0.0
2017-Feb-12 23:31N 53°54' E 011°28'0 0.0
2017-Feb-12 22:31N 53°54' E 011°28'0 0.0
2017-Feb-12 21:31N 53°54' E 011°28'0 0.0
2017-Feb-12 20:31N 53°54' E 011°28'0 0.0
2017-Feb-12 19:31N 53°54' E 011°28'0 0.0
2017-Feb-12 18:31N 53°54' E 011°28'0 0.0
2017-Feb-12 17:31N 53°54' E 011°28'0 0.0
2017-Feb-12 16:31N 53°54' E 011°28'0 0.0
2017-Feb-12 15:31N 53°54' E 011°28'0 0.0
2017-Feb-12 14:31N 53°54' E 011°28'0 0.0
2017-Feb-12 13:31N 53°54' E 011°28'0 0.0
2017-Feb-12 12:31N 53°54' E 011°28'3 3.3
2017-Feb-12 11:34N 53°57' E 011°25'7 6.7
2017-Feb-12 10:34N 54°03' E 011°26'12 8.4
2017-Feb-12 09:07N 54°15' E 011°30'27 9.5
2017-Feb-12 06:16N 54°28' E 012°11'7 9.5
2017-Feb-12 05:34N 54°35' E 012°14'40 9.1
2017-Feb-12 01:12N 54°55' E 013°14'8 9.3
2017-Feb-12 00:22N 54°57' E 013°26'8 9.5
2017-Feb-11 23:33N 54°59' E 013°39'10 9.6
2017-Feb-11 22:31N 55°03' E 013°56'9 9.2
2017-Feb-11 21:33N 55°08' E 014°09'9 8.9
2017-Feb-11 20:33N 55°14' E 014°18'9 9.1
2017-Feb-11 19:33N 55°21' E 014°29'9 8.8
2017-Feb-11 18:33N 55°28' E 014°40'9 9.1
2017-Feb-11 17:33N 55°32' E 014°54'9 9.3
2017-Feb-11 16:33N 55°37' E 015°08'254 8.5
2017-Feb-10 10:28N 59°08' E 019°31'8 9.0
2017-Feb-10 09:33N 59°15' E 019°39'9 9.0
2017-Feb-10 08:32N 59°23' E 019°48'9 9.2
2017-Feb-10 07:33N 59°31' E 019°56'8 8.1
2017-Feb-10 06:33N 59°39' E 019°53'9 8.9
2017-Feb-10 05:34N 59°46' E 019°42'9 8.7
2017-Feb-10 04:34N 59°52' E 019°31'9 9.0
2017-Feb-10 03:34N 59°59' E 019°19'9 9.1
2017-Feb-10 02:34N 60°07' E 019°08'9 8.8
2017-Feb-10 01:34N 60°15' E 019°01'10 9.4
2017-Feb-10 00:29N 60°25' E 018°59'20 8.8
2017-Feb-09 22:10N 60°42' E 019°23'6 9.2
2017-Feb-09 21:30N 60°46' E 019°32'9 9.3
2017-Feb-09 20:31N 60°52' E 019°45'  
Track history (hours):
 
Tides and Currents Weather Stations Pressure Air Temp Water Temp Dewpoint Dewpoint Depression Visibility Wind Speed Wind Dir Waves Ship Positions

Vingaren

Last reported at 2017-Feb-19 07:33 UTC. Time now 2017-Feb-19 16:51 UTC.
Position N 54°18' E 011°38'.

Length 89 m; draft 5.9 m.

Type: Cargo ship. MMSI: 231844000.

Date/timePositionNaut miles runAvg speedWind from/ knotsBaromVisibWave heightAir tempDewpointWater temp
2017-Feb-19 07:33N 54°18' E 011°38'9 9.5
2017-Feb-19 06:33N 54°23' E 011°52'9 8.9
2017-Feb-19 05:34N 54°27' E 012°05'8 8.2
2017-Feb-19 04:34N 54°34' E 012°13'9 8.8
2017-Feb-19 03:34N 54°40' E 012°23'9 8.8
2017-Feb-19 02:33N 54°45' E 012°36'37 9.2
2017-Feb-18 22:31N 54°59' E 013°36'9 9.3
2017-Feb-18 21:32N 55°02' E 013°51'9 9.7
2017-Feb-18 20:33N 55°06' E 014°06'10 9.7
2017-Feb-18 19:33N 55°13' E 014°17'1010.1
2017-Feb-18 18:33N 55°21' E 014°29'1010.0
2017-Feb-18 17:32N 55°28' E 014°42'1010.3
2017-Feb-18 16:33N 55°33' E 014°58'1010.1
2017-Feb-18 15:33N 55°38' E 015°13'1010.1
2017-Feb-18 14:33N 55°43' E 015°28'1010.1
2017-Feb-18 13:33N 55°48' E 015°44'1010.1
2017-Feb-18 12:34N 55°53' E 015°59'1010.0
2017-Feb-18 11:33N 55°59' E 016°15'1010.2
2017-Feb-18 10:34N 56°04' E 016°30'1010.0
2017-Feb-18 09:33N 56°10' E 016°44'1010.4
2017-Feb-18 08:33N 56°20' E 016°50'1110.7
2017-Feb-18 07:33N 56°31' E 016°55'1010.6
2017-Feb-18 06:33N 56°41' E 017°00'2110.6
2017-Feb-18 04:32N 57°01' E 017°11'8510.7
2017-Feb-17 20:33N 58°26' E 017°31'1010.2
2017-Feb-17 19:34N 58°36' E 017°30'10 9.8
2017-Feb-17 18:34N 58°37' E 017°11'3 3.2
2017-Feb-17 17:32N 58°40' E 017°07'0 0.0
2017-Feb-17 16:29N 58°40' E 017°07'0 0.0
2017-Feb-17 15:32N 58°40' E 017°07'0 0.0
2017-Feb-17 14:32N 58°40' E 017°07'0 0.0
2017-Feb-17 13:32N 58°40' E 017°07'0 0.0
2017-Feb-17 12:32N 58°40' E 017°07'0 0.0
2017-Feb-17 11:32N 58°40' E 017°07'0 0.0
2017-Feb-17 10:32N 58°40' E 017°07'0 0.0
2017-Feb-17 09:32N 58°40' E 017°07'0 0.0
2017-Feb-17 08:32N 58°40' E 017°07'0 0.0
2017-Feb-17 07:32N 58°40' E 017°07'0 0.0
2017-Feb-17 06:32N 58°40' E 017°07'0 0.0
2017-Feb-17 05:32N 58°40' E 017°07'0 0.0
2017-Feb-17 04:32N 58°40' E 017°07'0 0.0
2017-Feb-17 03:32N 58°40' E 017°07'0 0.4
2017-Feb-17 02:33N 58°39' E 017°07'9 8.8
2017-Feb-17 01:34N 58°37' E 017°24'16510.1
2017-Feb-16 09:15N 55°56' E 016°19'710.7
2017-Feb-16 08:33N 55°52' E 016°07'1110.7
2017-Feb-16 07:33N 55°47' E 015°51'1010.4
2017-Feb-16 06:33N 55°42' E 015°35'1010.6
2017-Feb-16 05:33N 55°36' E 015°19'1010.4
2017-Feb-16 04:33N 55°31' E 015°03'1110.5
2017-Feb-16 03:33N 55°25' E 014°47'1110.7
2017-Feb-16 02:33N 55°18' E 014°33'1110.8
2017-Feb-16 01:34N 55°10' E 014°20'1110.7
2017-Feb-16 00:33N 55°02' E 014°08'1110.8
2017-Feb-15 23:32N 54°58' E 013°50'1010.6
2017-Feb-15 22:33N 54°55' E 013°33'1510.8
2017-Feb-15 21:09N 54°50' E 013°08'711.0
2017-Feb-15 20:28N 54°47' E 012°56'1010.7
2017-Feb-15 19:34N 54°44' E 012°41'20 9.9
2017-Feb-15 17:30N 54°29' E 012°15'9 9.5
2017-Feb-15 16:32N 54°24' E 012°02'2110.5
2017-Feb-15 14:33N 54°14' E 011°31'1010.1
2017-Feb-15 13:33N 54°04' E 011°26'7 7.5
2017-Feb-15 12:34N 53°57' E 011°24'4 3.5
2017-Feb-15 11:33N 53°54' E 011°28'0 0.0
2017-Feb-15 10:33N 53°54' E 011°28'0 0.0
2017-Feb-15 09:33N 53°54' E 011°28'0 0.0
2017-Feb-15 08:33N 53°54' E 011°28'0 0.0
2017-Feb-15 07:33N 53°54' E 011°28'0 0.0
2017-Feb-15 06:33N 53°54' E 011°28'0 0.0
2017-Feb-15 05:33N 53°54' E 011°28'0 0.0
2017-Feb-15 04:33N 53°54' E 011°28'0 0.0
2017-Feb-15 03:33N 53°54' E 011°28'0 0.0
2017-Feb-15 02:33N 53°54' E 011°28'0 0.0
2017-Feb-15 01:30N 53°54' E 011°28'0 0.0
2017-Feb-15 00:30N 53°54' E 011°28'0 0.0
2017-Feb-14 23:30N 53°54' E 011°28'0 0.0
2017-Feb-14 22:32N 53°54' E 011°28'0 0.0
2017-Feb-14 21:32N 53°54' E 011°28'0 0.0
2017-Feb-14 20:32N 53°54' E 011°28'0 0.0
2017-Feb-14 19:32N 53°54' E 011°28'0 0.0
2017-Feb-14 18:32N 53°54' E 011°28'0 0.0
2017-Feb-14 17:32N 53°54' E 011°28'0 0.0
2017-Feb-14 16:32N 53°54' E 011°28'0 0.0
2017-Feb-14 15:32N 53°54' E 011°28'0 0.0
2017-Feb-14 14:32N 53°54' E 011°28'0 0.0
2017-Feb-14 13:32N 53°54' E 011°28'0 0.0
2017-Feb-14 12:32N 53°54' E 011°28'0 0.0
2017-Feb-14 11:32N 53°54' E 011°28'0 0.0
2017-Feb-14 10:32N 53°54' E 011°28'0 0.0
2017-Feb-14 09:29N 53°54' E 011°28'0 0.0
2017-Feb-14 08:32N 53°54' E 011°28'0 0.0
2017-Feb-14 07:32N 53°54' E 011°28'0 0.0
2017-Feb-14 06:32N 53°54' E 011°28'0 0.0
2017-Feb-14 05:32N 53°54' E 011°28'0 0.0
2017-Feb-14 04:32N 53°54' E 011°28'0 0.0
2017-Feb-14 03:32N 53°54' E 011°28'0 0.0
2017-Feb-14 02:32N 53°54' E 011°28'0 0.0
2017-Feb-14 01:32N 53°54' E 011°28'0 0.0
2017-Feb-14 00:32N 53°54' E 011°28'0 0.0
2017-Feb-13 23:32N 53°54' E 011°28'0 0.0
2017-Feb-13 22:29N 53°54' E 011°28'0 0.0
2017-Feb-13 21:32N 53°54' E 011°28'0 0.0
2017-Feb-13 20:32N 53°54' E 011°28'0 0.0
2017-Feb-13 19:32N 53°54' E 011°28'0 0.0
2017-Feb-13 18:32N 53°54' E 011°28'0 0.0
2017-Feb-13 17:32N 53°54' E 011°28'0 0.0
2017-Feb-13 16:32N 53°54' E 011°28'0 0.0
2017-Feb-13 15:32N 53°54' E 011°28'0 0.0
2017-Feb-13 14:32N 53°54' E 011°28'0 0.0
2017-Feb-13 13:31N 53°54' E 011°28'0 0.0
2017-Feb-13 12:31N 53°54' E 011°28'0 0.0
2017-Feb-13 11:31N 53°54' E 011°28'0 0.0
2017-Feb-13 10:31N 53°54' E 011°28'0 0.0
2017-Feb-13 09:31N 53°54' E 011°28'0 0.0
2017-Feb-13 08:31N 53°54' E 011°28'0 0.0
2017-Feb-13 07:28N 53°54' E 011°28'0 0.0
2017-Feb-13 06:31N 53°54' E 011°28'0 0.0
2017-Feb-13 05:28N 53°54' E 011°28'0 0.0
2017-Feb-13 04:31N 53°54' E 011°28'0 0.0
2017-Feb-13 03:31N 53°54' E 011°28'0 0.0
2017-Feb-13 02:31N 53°54' E 011°28'0 0.0
2017-Feb-13 01:31N 53°54' E 011°28'0 0.0
2017-Feb-13 00:31N 53°54' E 011°28'0 0.0
2017-Feb-12 23:31N 53°54' E 011°28'0 0.0
2017-Feb-12 22:31N 53°54' E 011°28'0 0.0
2017-Feb-12 21:31N 53°54' E 011°28'0 0.0
2017-Feb-12 20:31N 53°54' E 011°28'0 0.0
2017-Feb-12 19:31N 53°54' E 011°28'0 0.0
2017-Feb-12 18:31N 53°54' E 011°28'0 0.0
2017-Feb-12 17:31N 53°54' E 011°28'0 0.0
2017-Feb-12 16:31N 53°54' E 011°28'0 0.0
2017-Feb-12 15:31N 53°54' E 011°28'0 0.0
2017-Feb-12 14:31N 53°54' E 011°28'0 0.0
2017-Feb-12 13:31N 53°54' E 011°28'0 0.0
2017-Feb-12 12:31N 53°54' E 011°28'3 3.3
2017-Feb-12 11:34N 53°57' E 011°25'7 6.7
2017-Feb-12 10:34N 54°03' E 011°26'12 8.4
2017-Feb-12 09:07N 54°15' E 011°30'27 9.5
2017-Feb-12 06:16N 54°28' E 012°11'7 9.5
2017-Feb-12 05:34N 54°35' E 012°14'40 9.1
2017-Feb-12 01:12N 54°55' E 013°14'8 9.3
2017-Feb-12 00:22N 54°57' E 013°26'8 9.5
2017-Feb-11 23:33N 54°59' E 013°39'10 9.6
2017-Feb-11 22:31N 55°03' E 013°56'9 9.2
2017-Feb-11 21:33N 55°08' E 014°09'9 8.9
2017-Feb-11 20:33N 55°14' E 014°18'9 9.1
2017-Feb-11 19:33N 55°21' E 014°29'9 8.8
2017-Feb-11 18:33N 55°28' E 014°40'9 9.1
2017-Feb-11 17:33N 55°32' E 014°54'9 9.3
2017-Feb-11 16:33N 55°37' E 015°08'254 8.5
2017-Feb-10 10:28N 59°08' E 019°31'8 9.0
2017-Feb-10 09:33N 59°15' E 019°39'9 9.0
2017-Feb-10 08:32N 59°23' E 019°48'9 9.2
2017-Feb-10 07:33N 59°31' E 019°56'8 8.1
2017-Feb-10 06:33N 59°39' E 019°53'9 8.9
2017-Feb-10 05:34N 59°46' E 019°42'9 8.7
2017-Feb-10 04:34N 59°52' E 019°31'9 9.0
2017-Feb-10 03:34N 59°59' E 019°19'9 9.1
2017-Feb-10 02:34N 60°07' E 019°08'9 8.8
2017-Feb-10 01:34N 60°15' E 019°01'10 9.4
2017-Feb-10 00:29N 60°25' E 018°59'20 8.8
2017-Feb-09 22:10N 60°42' E 019°23'6 9.2
2017-Feb-09 21:30N 60°46' E 019°32'9 9.3
2017-Feb-09 20:31N 60°52' E 019°45'  

Dump ship's entire track history